sensor_id;sensor_type;location;lat;lon;timestamp;pressure;altitude;pressure_sealevel;temperature;humidity
39267;BME280;24967;51.154;13.812;2023-01-27T00:01:13;99933.59;;;0.67;84.67
39267;BME280;24967;51.154;13.812;2023-01-27T00:03:39;99926.81;;;0.81;84.85
39267;BME280;24967;51.154;13.812;2023-01-27T00:06:06;99917.22;;;0.64;85.33
39267;BME280;24967;51.154;13.812;2023-01-27T00:08:36;99914.56;;;0.81;84.95
39267;BME280;24967;51.154;13.812;2023-01-27T00:11:02;99916.94;;;1.03;84.18
39267;BME280;24967;51.154;13.812;2023-01-27T00:13:47;99911.78;;;1.18;83.67
39267;BME280;24967;51.154;13.812;2023-01-27T00:16:14;99907.66;;;1.29;82.62
39267;BME280;24967;51.154;13.812;2023-01-27T00:18:40;99909.81;;;1.05;83.78
39267;BME280;24967;51.154;13.812;2023-01-27T00:21:06;99913.38;;;1.20;82.85
39267;BME280;24967;51.154;13.812;2023-01-27T00:23:50;99908.09;;;1.22;82.48
39267;BME280;24967;51.154;13.812;2023-01-27T00:26:34;99903.84;;;1.03;82.69
39267;BME280;24967;51.154;13.812;2023-01-27T00:29:02;99901.44;;;0.99;83.22
39267;BME280;24967;51.154;13.812;2023-01-27T00:31:28;99907.28;;;1.04;83.46
39267;BME280;24967;51.154;13.812;2023-01-27T00:34:12;99903.88;;;0.68;84.65
39267;BME280;24967;51.154;13.812;2023-01-27T00:36:39;99906.81;;;0.80;83.64
39267;BME280;24967;51.154;13.812;2023-01-27T00:39:06;99916.44;;;0.62;83.93
39267;BME280;24967;51.154;13.812;2023-01-27T00:41:33;99918.22;;;0.44;85.74
39267;BME280;24967;51.154;13.812;2023-01-27T00:43:59;99916.28;;;0.65;84.66
39267;BME280;24967;51.154;13.812;2023-01-27T00:46:27;99909.75;;;0.74;84.81
39267;BME280;24967;51.154;13.812;2023-01-27T00:48:54;99910.03;;;0.85;83.48
39267;BME280;24967;51.154;13.812;2023-01-27T00:51:20;99914.94;;;0.91;83.66
39267;BME280;24967;51.154;13.812;2023-01-27T00:53:46;99911.19;;;0.79;83.30
39267;BME280;24967;51.154;13.812;2023-01-27T00:56:13;99915.66;;;1.10;83.45
39267;BME280;24967;51.154;13.812;2023-01-27T00:58:40;99909.88;;;1.21;82.17
39267;BME280;24967;51.154;13.812;2023-01-27T01:01:08;99903.97;;;1.33;82.50
39267;BME280;24967;51.154;13.812;2023-01-27T01:03:36;99907.78;;;0.95;83.34
39267;BME280;24967;51.154;13.812;2023-01-27T01:06:04;99914.97;;;1.07;82.58
39267;BME280;24967;51.154;13.812;2023-01-27T01:08:31;99909.94;;;0.86;83.00
39267;BME280;24967;51.154;13.812;2023-01-27T01:10:58;99913.84;;;0.95;82.52
39267;BME280;24967;51.154;13.812;2023-01-27T01:13:24;99917.47;;;0.93;82.57
39267;BME280;24967;51.154;13.812;2023-01-27T01:15:51;99909.41;;;0.97;82.50
39267;BME280;24967;51.154;13.812;2023-01-27T01:18:18;99918.16;;;0.96;82.41
39267;BME280;24967;51.154;13.812;2023-01-27T01:20:45;99917.88;;;1.18;82.36
39267;BME280;24967;51.154;13.812;2023-01-27T01:23:12;99914.69;;;0.96;82.98
39267;BME280;24967;51.154;13.812;2023-01-27T01:25:39;99920.28;;;1.05;82.34
39267;BME280;24967;51.154;13.812;2023-01-27T01:28:06;99917.28;;;0.80;83.49
39267;BME280;24967;51.154;13.812;2023-01-27T01:30:33;99914.19;;;0.89;83.35
39267;BME280;24967;51.154;13.812;2023-01-27T01:32:59;99907.47;;;0.83;84.07
39267;BME280;24967;51.154;13.812;2023-01-27T01:35:26;99913.25;;;0.73;85.05
39267;BME280;24967;51.154;13.812;2023-01-27T01:37:54;99908.13;;;0.71;84.91
39267;BME280;24967;51.154;13.812;2023-01-27T01:40:20;99914.66;;;0.45;86.88
39267;BME280;24967;51.154;13.812;2023-01-27T01:42:49;99917.47;;;0.25;87.96
39267;BME280;24967;51.154;13.812;2023-01-27T01:48:04;99914.06;;;0.22;88.11
39267;BME280;24967;51.154;13.812;2023-01-27T01:50:31;99913.94;;;0.43;87.86
39267;BME280;24967;51.154;13.812;2023-01-27T01:53:00;99922.84;;;0.56;87.17
39267;BME280;24967;51.154;13.812;2023-01-27T01:55:27;99919.72;;;0.83;86.39
39267;BME280;24967;51.154;13.812;2023-01-27T01:57:54;99920.34;;;0.88;86.23
39267;BME280;24967;51.154;13.812;2023-01-27T02:00:21;99918.88;;;0.82;85.53
39267;BME280;24967;51.154;13.812;2023-01-27T02:02:47;99918.78;;;1.17;85.29
39267;BME280;24967;51.154;13.812;2023-01-27T02:05:15;99915.78;;;0.91;85.63
39267;BME280;24967;51.154;13.812;2023-01-27T02:07:43;99915.66;;;0.77;85.72
39267;BME280;24967;51.154;13.812;2023-01-27T02:10:13;99925.28;;;0.77;86.22
39267;BME280;24967;51.154;13.812;2023-01-27T02:12:40;99922.66;;;0.94;85.53
39267;BME280;24967;51.154;13.812;2023-01-27T02:15:06;99929.56;;;0.95;84.88
39267;BME280;24967;51.154;13.812;2023-01-27T02:17:33;99927.66;;;0.81;85.47
39267;BME280;24967;51.154;13.812;2023-01-27T02:20:02;99932.34;;;0.75;85.48
39267;BME280;24967;51.154;13.812;2023-01-27T02:22:32;99934.34;;;0.87;85.77
39267;BME280;24967;51.154;13.812;2023-01-27T02:25:02;99927.06;;;1.09;85.27
39267;BME280;24967;51.154;13.812;2023-01-27T02:27:33;99925.84;;;0.99;84.68
39267;BME280;24967;51.154;13.812;2023-01-27T02:29:59;99923.41;;;1.12;84.69
39267;BME280;24967;51.154;13.812;2023-01-27T02:32:25;99920.94;;;0.93;84.27
39267;BME280;24967;51.154;13.812;2023-01-27T02:34:52;99922.41;;;1.14;84.96
39267;BME280;24967;51.154;13.812;2023-01-27T02:37:20;99923.91;;;1.03;84.58
39267;BME280;24967;51.154;13.812;2023-01-27T02:39:48;99924.47;;;1.09;84.69
39267;BME280;24967;51.154;13.812;2023-01-27T02:42:15;99930.38;;;1.13;84.15
39267;BME280;24967;51.154;13.812;2023-01-27T02:44:44;99935.56;;;0.97;84.43
39267;BME280;24967;51.154;13.812;2023-01-27T02:47:10;99937.91;;;1.19;84.41
39267;BME280;24967;51.154;13.812;2023-01-27T02:49:36;99939.50;;;1.22;83.72
39267;BME280;24967;51.154;13.812;2023-01-27T02:52:03;99940.41;;;1.21;84.41
39267;BME280;24967;51.154;13.812;2023-01-27T02:54:29;99938.19;;;1.30;84.18
39267;BME280;24967;51.154;13.812;2023-01-27T02:56:55;99937.78;;;1.05;84.10
39267;BME280;24967;51.154;13.812;2023-01-27T02:59:22;99943.53;;;1.11;83.89
39267;BME280;24967;51.154;13.812;2023-01-27T03:01:49;99940.81;;;0.97;84.12
39267;BME280;24967;51.154;13.812;2023-01-27T03:04:16;99941.88;;;0.93;84.89
39267;BME280;24967;51.154;13.812;2023-01-27T03:06:42;99943.50;;;0.78;85.14
39267;BME280;24967;51.154;13.812;2023-01-27T03:09:08;99952.25;;;0.61;85.26
39267;BME280;24967;51.154;13.812;2023-01-27T03:11:35;99946.53;;;0.88;84.90
39267;BME280;24967;51.154;13.812;2023-01-27T03:14:18;99954.53;;;0.85;84.84
39267;BME280;24967;51.154;13.812;2023-01-27T03:16:45;99941.50;;;1.01;84.88
39267;BME280;24967;51.154;13.812;2023-01-27T03:19:30;99944.47;;;1.10;84.76
39267;BME280;24967;51.154;13.812;2023-01-27T03:21:56;99945.34;;;1.27;84.22
39267;BME280;24967;51.154;13.812;2023-01-27T03:24:25;99951.00;;;1.19;84.03
39267;BME280;24967;51.154;13.812;2023-01-27T03:26:52;99942.13;;;1.22;83.79
39267;BME280;24967;51.154;13.812;2023-01-27T03:29:18;99948.59;;;1.14;83.74
39267;BME280;24967;51.154;13.812;2023-01-27T03:32:02;99952.59;;;1.22;83.73
39267;BME280;24967;51.154;13.812;2023-01-27T03:34:28;99946.94;;;1.29;83.55
39267;BME280;24967;51.154;13.812;2023-01-27T03:36:56;99953.47;;;1.05;84.25
39267;BME280;24967;51.154;13.812;2023-01-27T03:39:39;99954.94;;;1.10;84.37
39267;BME280;24967;51.154;13.812;2023-01-27T03:42:23;99956.09;;;1.05;84.19
39267;BME280;24967;51.154;13.812;2023-01-27T03:45:07;99955.22;;;0.88;84.39
39267;BME280;24967;51.154;13.812;2023-01-27T03:47:51;99955.41;;;1.01;84.63
39267;BME280;24967;51.154;13.812;2023-01-27T03:50:18;99960.84;;;0.63;85.53
39267;BME280;24967;51.154;13.812;2023-01-27T03:52:45;99963.38;;;0.82;84.85
39267;BME280;24967;51.154;13.812;2023-01-27T03:55:28;99956.16;;;0.70;85.43
39267;BME280;24967;51.154;13.812;2023-01-27T03:57:54;99956.84;;;0.74;86.18
39267;BME280;24967;51.154;13.812;2023-01-27T04:00:21;99949.91;;;0.73;86.41
39267;BME280;24967;51.154;13.812;2023-01-27T04:02:47;99951.66;;;0.72;85.97
39267;BME280;24967;51.154;13.812;2023-01-27T04:05:31;99958.53;;;0.75;85.81
39267;BME280;24967;51.154;13.812;2023-01-27T04:08:16;99951.34;;;0.96;85.68
39267;BME280;24967;51.154;13.812;2023-01-27T04:10:42;99953.03;;;0.97;85.11
39267;BME280;24967;51.154;13.812;2023-01-27T04:13:29;99966.22;;;0.95;85.13
39267;BME280;24967;51.154;13.812;2023-01-27T04:15:54;99967.88;;;1.13;85.00
39267;BME280;24967;51.154;13.812;2023-01-27T04:18:21;99960.00;;;1.13;84.24
39267;BME280;24967;51.154;13.812;2023-01-27T04:20:47;99959.44;;;0.91;84.38
39267;BME280;24967;51.154;13.812;2023-01-27T04:23:13;99956.59;;;0.78;85.40
39267;BME280;24967;51.154;13.812;2023-01-27T04:25:41;99950.88;;;1.05;84.66
39267;BME280;24967;51.154;13.812;2023-01-27T04:28:07;99962.06;;;0.91;84.96
39267;BME280;24967;51.154;13.812;2023-01-27T04:30:33;99952.81;;;0.84;84.91
39267;BME280;24967;51.154;13.812;2023-01-27T04:33:00;99950.34;;;0.98;85.00
39267;BME280;24967;51.154;13.812;2023-01-27T04:35:29;99952.09;;;1.15;84.17
39267;BME280;24967;51.154;13.812;2023-01-27T04:37:55;99939.41;;;0.90;84.21
39267;BME280;24967;51.154;13.812;2023-01-27T04:40:21;99945.41;;;1.09;83.83
39267;BME280;24967;51.154;13.812;2023-01-27T04:42:49;99944.06;;;1.18;84.21
39267;BME280;24967;51.154;13.812;2023-01-27T04:45:18;99946.53;;;1.21;83.72
39267;BME280;24967;51.154;13.812;2023-01-27T04:47:44;99948.88;;;1.10;83.77
39267;BME280;24967;51.154;13.812;2023-01-27T04:50:10;99942.78;;;1.09;83.73
39267;BME280;24967;51.154;13.812;2023-01-27T04:52:37;99949.19;;;1.04;83.75
39267;BME280;24967;51.154;13.812;2023-01-27T04:55:03;99948.53;;;1.16;83.54
39267;BME280;24967;51.154;13.812;2023-01-27T04:57:30;99948.69;;;0.80;84.47
39267;BME280;24967;51.154;13.812;2023-01-27T04:59:58;99944.00;;;1.02;84.54
39267;BME280;24967;51.154;13.812;2023-01-27T05:02:24;99948.03;;;1.09;84.00
39267;BME280;24967;51.154;13.812;2023-01-27T05:04:51;99950.31;;;1.16;83.81
39267;BME280;24967;51.154;13.812;2023-01-27T05:07:17;99948.56;;;1.32;83.85
39267;BME280;24967;51.154;13.812;2023-01-27T05:09:43;99954.81;;;1.29;83.44
39267;BME280;24967;51.154;13.812;2023-01-27T05:12:10;99954.72;;;1.15;83.70
39267;BME280;24967;51.154;13.812;2023-01-27T05:14:36;99949.66;;;0.95;84.53
39267;BME280;24967;51.154;13.812;2023-01-27T05:17:04;99949.25;;;1.02;84.58
39267;BME280;24967;51.154;13.812;2023-01-27T05:19:30;99947.94;;;1.11;84.13
39267;BME280;24967;51.154;13.812;2023-01-27T05:21:57;99955.13;;;1.23;83.94
39267;BME280;24967;51.154;13.812;2023-01-27T05:24:23;99951.06;;;1.18;84.10
39267;BME280;24967;51.154;13.812;2023-01-27T05:26:49;99955.47;;;1.33;83.33
39267;BME280;24967;51.154;13.812;2023-01-27T05:29:17;99950.41;;;0.97;84.21
39267;BME280;24967;51.154;13.812;2023-01-27T05:31:43;99953.59;;;0.86;84.93
39267;BME280;24967;51.154;13.812;2023-01-27T05:34:11;99956.69;;;0.94;84.83
39267;BME280;24967;51.154;13.812;2023-01-27T05:36:38;99960.19;;;1.10;84.74
39267;BME280;24967;51.154;13.812;2023-01-27T05:39:04;99962.75;;;1.28;83.93
39267;BME280;24967;51.154;13.812;2023-01-27T05:41:31;99965.22;;;1.31;83.73
39267;BME280;24967;51.154;13.812;2023-01-27T05:43:57;99968.59;;;1.33;83.50
39267;BME280;24967;51.154;13.812;2023-01-27T05:46:24;99978.63;;;1.25;83.00
39267;BME280;24967;51.154;13.812;2023-01-27T05:48:51;99973.56;;;1.22;82.99
39267;BME280;24967;51.154;13.812;2023-01-27T05:51:20;99982.84;;;0.94;82.91
39267;BME280;24967;51.154;13.812;2023-01-27T05:53:47;99986.06;;;0.99;83.82
39267;BME280;24967;51.154;13.812;2023-01-27T05:56:14;99990.22;;;1.03;83.48
39267;BME280;24967;51.154;13.812;2023-01-27T05:58:40;99985.66;;;1.24;83.42
39267;BME280;24967;51.154;13.812;2023-01-27T06:01:07;99994.44;;;1.39;83.00
39267;BME280;24967;51.154;13.812;2023-01-27T06:03:34;99994.72;;;1.50;81.87
39267;BME280;24967;51.154;13.812;2023-01-27T06:06:00;99996.28;;;1.70;81.35
39267;BME280;24967;51.154;13.812;2023-01-27T06:08:29;100002.91;;;1.44;81.35
39267;BME280;24967;51.154;13.812;2023-01-27T06:10:56;100009.78;;;1.47;81.07
39267;BME280;24967;51.154;13.812;2023-01-27T06:13:23;100003.72;;;1.29;80.55
39267;BME280;24967;51.154;13.812;2023-01-27T06:15:49;99999.97;;;1.50;80.92
39267;BME280;24967;51.154;13.812;2023-01-27T06:18:17;99989.84;;;1.60;80.74
39267;BME280;24967;51.154;13.812;2023-01-27T06:20:44;99998.41;;;1.64;80.66
39267;BME280;24967;51.154;13.812;2023-01-27T06:23:11;99998.41;;;1.64;80.50
39267;BME280;24967;51.154;13.812;2023-01-27T06:25:40;100011.34;;;1.67;79.83
39267;BME280;24967;51.154;13.812;2023-01-27T06:28:06;100015.81;;;1.80;80.16
39267;BME280;24967;51.154;13.812;2023-01-27T06:30:33;100006.78;;;1.70;79.69
39267;BME280;24967;51.154;13.812;2023-01-27T06:33:00;100009.31;;;1.72;79.86
39267;BME280;24967;51.154;13.812;2023-01-27T06:35:26;100019.47;;;1.45;80.04
39267;BME280;24967;51.154;13.812;2023-01-27T06:37:53;100017.72;;;1.45;79.91
39267;BME280;24967;51.154;13.812;2023-01-27T06:40:19;100025.69;;;1.26;80.27
39267;BME280;24967;51.154;13.812;2023-01-27T06:42:47;100029.16;;;1.27;81.09
39267;BME280;24967;51.154;13.812;2023-01-27T06:45:13;100012.16;;;1.51;80.04
39267;BME280;24967;51.154;13.812;2023-01-27T06:47:40;100013.75;;;1.54;80.01
39267;BME280;24967;51.154;13.812;2023-01-27T06:50:07;100021.72;;;1.68;79.33
39267;BME280;24967;51.154;13.812;2023-01-27T06:52:34;100016.31;;;1.22;80.54
39267;BME280;24967;51.154;13.812;2023-01-27T06:55:00;100025.09;;;1.21;81.51
39267;BME280;24967;51.154;13.812;2023-01-27T06:57:27;100026.06;;;1.36;80.85
39267;BME280;24967;51.154;13.812;2023-01-27T06:59:55;100028.34;;;1.42;80.79
39267;BME280;24967;51.154;13.812;2023-01-27T07:02:21;100030.59;;;1.32;81.06
39267;BME280;24967;51.154;13.812;2023-01-27T07:04:47;100039.19;;;1.19;81.54
39267;BME280;24967;51.154;13.812;2023-01-27T07:07:14;100046.28;;;0.99;82.37
39267;BME280;24967;51.154;13.812;2023-01-27T07:09:40;100041.59;;;0.88;83.11
39267;BME280;24967;51.154;13.812;2023-01-27T07:12:06;100047.19;;;0.63;84.56
39267;BME280;24967;51.154;13.812;2023-01-27T07:14:33;100042.28;;;0.75;84.72
39267;BME280;24967;51.154;13.812;2023-01-27T07:17:02;100048.88;;;0.47;86.18
39267;BME280;24967;51.154;13.812;2023-01-27T07:19:29;100041.75;;;0.68;85.58
39267;BME280;24967;51.154;13.812;2023-01-27T07:21:55;100040.38;;;0.42;86.37
39267;BME280;24967;51.154;13.812;2023-01-27T07:24:21;100040.91;;;0.67;85.71
39267;BME280;24967;51.154;13.812;2023-01-27T07:26:47;100042.59;;;0.86;85.53
39267;BME280;24967;51.154;13.812;2023-01-27T07:29:14;100043.69;;;0.82;85.13
39267;BME280;24967;51.154;13.812;2023-01-27T07:31:40;100049.50;;;0.69;85.60
39267;BME280;24967;51.154;13.812;2023-01-27T07:34:08;100046.75;;;0.90;85.04
39267;BME280;24967;51.154;13.812;2023-01-27T07:36:34;100052.03;;;1.06;84.69
39267;BME280;24967;51.154;13.812;2023-01-27T07:39:00;100051.06;;;1.08;84.24
39267;BME280;24967;51.154;13.812;2023-01-27T07:41:26;100048.41;;;1.26;83.28
39267;BME280;24967;51.154;13.812;2023-01-27T07:43:53;100048.78;;;1.35;83.14
39267;BME280;24967;51.154;13.812;2023-01-27T07:46:19;100056.06;;;1.13;83.05
39267;BME280;24967;51.154;13.812;2023-01-27T07:48:45;100060.34;;;1.31;82.76
39267;BME280;24967;51.154;13.812;2023-01-27T07:51:13;100056.66;;;1.35;81.48
39267;BME280;24967;51.154;13.812;2023-01-27T07:53:40;100062.34;;;1.26;82.28
39267;BME280;24967;51.154;13.812;2023-01-27T07:56:06;100068.59;;;1.41;81.52
39267;BME280;24967;51.154;13.812;2023-01-27T07:58:35;100069.06;;;1.32;81.33
39267;BME280;24967;51.154;13.812;2023-01-27T08:01:03;100076.13;;;1.47;81.03
39267;BME280;24967;51.154;13.812;2023-01-27T08:03:30;100073.13;;;1.55;80.18
39267;BME280;24967;51.154;13.812;2023-01-27T08:05:56;100082.59;;;1.57;80.37
39267;BME280;24967;51.154;13.812;2023-01-27T08:08:23;100084.31;;;1.24;79.65
39267;BME280;24967;51.154;13.812;2023-01-27T08:10:50;100076.63;;;1.03;81.06
39267;BME280;24967;51.154;13.812;2023-01-27T08:13:18;100082.94;;;1.17;81.21
39267;BME280;24967;51.154;13.812;2023-01-27T08:15:44;100090.84;;;1.32;80.91
39267;BME280;24967;51.154;13.812;2023-01-27T08:18:11;100085.56;;;1.34;80.79
39267;BME280;24967;51.154;13.812;2023-01-27T08:20:37;100097.88;;;1.32;80.88
39267;BME280;24967;51.154;13.812;2023-01-27T08:23:03;100089.13;;;1.16;80.97
39267;BME280;24967;51.154;13.812;2023-01-27T08:25:31;100098.72;;;1.32;80.50
39267;BME280;24967;51.154;13.812;2023-01-27T08:27:57;100089.50;;;1.25;79.68
39267;BME280;24967;51.154;13.812;2023-01-27T08:30:24;100096.72;;;1.37;80.36
39267;BME280;24967;51.154;13.812;2023-01-27T08:32:50;100090.31;;;1.43;79.88
39267;BME280;24967;51.154;13.812;2023-01-27T08:35:17;100097.09;;;1.47;79.57
39267;BME280;24967;51.154;13.812;2023-01-27T08:37:44;100104.88;;;1.49;79.27
39267;BME280;24967;51.154;13.812;2023-01-27T08:40:10;100103.44;;;1.76;78.98
39267;BME280;24967;51.154;13.812;2023-01-27T08:42:38;100110.50;;;1.58;78.76
39267;BME280;24967;51.154;13.812;2023-01-27T08:45:05;100107.09;;;1.56;78.96
39267;BME280;24967;51.154;13.812;2023-01-27T08:47:32;100106.72;;;1.64;78.91
39267;BME280;24967;51.154;13.812;2023-01-27T08:49:59;100107.34;;;1.34;79.30
39267;BME280;24967;51.154;13.812;2023-01-27T08:52:25;100105.34;;;1.05;80.51
39267;BME280;24967;51.154;13.812;2023-01-27T08:54:54;100107.41;;;1.33;79.74
39267;BME280;24967;51.154;13.812;2023-01-27T08:57:21;100103.44;;;1.26;79.76
39267;BME280;24967;51.154;13.812;2023-01-27T08:59:50;100109.97;;;1.52;79.33
39267;BME280;24967;51.154;13.812;2023-01-27T09:02:16;100110.81;;;1.52;79.37
39267;BME280;24967;51.154;13.812;2023-01-27T09:04:44;100121.03;;;1.57;78.95
39267;BME280;24967;51.154;13.812;2023-01-27T09:07:10;100111.59;;;1.54;79.10
39267;BME280;24967;51.154;13.812;2023-01-27T09:09:37;100110.16;;;1.65;78.96
39267;BME280;24967;51.154;13.812;2023-01-27T09:12:03;100109.38;;;1.63;79.48
39267;BME280;24967;51.154;13.812;2023-01-27T09:14:29;100109.50;;;1.61;79.74
39267;BME280;24967;51.154;13.812;2023-01-27T09:16:57;100116.09;;;1.68;78.96
39267;BME280;24967;51.154;13.812;2023-01-27T09:19:23;100117.09;;;1.66;79.54
39267;BME280;24967;51.154;13.812;2023-01-27T09:21:50;100119.00;;;1.46;80.07
39267;BME280;24967;51.154;13.812;2023-01-27T09:24:16;100120.75;;;1.46;80.28
39267;BME280;24967;51.154;13.812;2023-01-27T09:26:43;100116.69;;;1.23;81.41
39267;BME280;24967;51.154;13.812;2023-01-27T09:29:10;100123.75;;;1.38;80.98
39267;BME280;24967;51.154;13.812;2023-01-27T09:31:36;100118.38;;;1.41;80.50
39267;BME280;24967;51.154;13.812;2023-01-27T09:34:04;100122.22;;;1.51;80.39
39267;BME280;24967;51.154;13.812;2023-01-27T09:36:30;100129.53;;;1.45;81.42
39267;BME280;24967;51.154;13.812;2023-01-27T09:38:59;100126.38;;;1.55;80.76
39267;BME280;24967;51.154;13.812;2023-01-27T09:46:55;100118.56;;;1.71;80.15
39267;BME280;24967;51.154;13.812;2023-01-27T09:49:32;100129.03;;;1.71;79.59
39267;BME280;24967;51.154;13.812;2023-01-27T09:52:07;100126.41;;;1.71;79.96
39267;BME280;24967;51.154;13.812;2023-01-27T09:54:47;100128.03;;;1.74;79.78
39267;BME280;24967;51.154;13.812;2023-01-27T09:57:17;100122.91;;;1.88;79.11
39267;BME280;24967;51.154;13.812;2023-01-27T09:59:51;100124.31;;;1.78;79.79
39267;BME280;24967;51.154;13.812;2023-01-27T10:02:30;100121.81;;;1.59;80.28
39267;BME280;24967;51.154;13.812;2023-01-27T10:05:04;100122.22;;;1.51;80.75
39267;BME280;24967;51.154;13.812;2023-01-27T10:07:57;100128.41;;;1.66;80.35
39267;BME280;24967;51.154;13.812;2023-01-27T10:10:30;100129.97;;;1.70;80.07
39267;BME280;24967;51.154;13.812;2023-01-27T10:13:08;100141.47;;;1.68;80.45
39267;BME280;24967;51.154;13.812;2023-01-27T10:15:41;100123.56;;;1.76;81.01
39267;BME280;24967;51.154;13.812;2023-01-27T10:18:16;100127.78;;;1.78;80.16
39267;BME280;24967;51.154;13.812;2023-01-27T10:20:51;100126.56;;;1.86;79.80
39267;BME280;24967;51.154;13.812;2023-01-27T10:23:28;100127.16;;;1.91;80.55
39267;BME280;24967;51.154;13.812;2023-01-27T10:26:02;100127.34;;;2.03;80.46
39267;BME280;24967;51.154;13.812;2023-01-27T10:28:33;100120.59;;;2.15;79.96
39267;BME280;24967;51.154;13.812;2023-01-27T10:31:00;100120.00;;;2.10;80.05
39267;BME280;24967;51.154;13.812;2023-01-27T10:33:36;100117.03;;;2.32;79.62
39267;BME280;24967;51.154;13.812;2023-01-27T10:36:10;100118.03;;;2.14;79.60
39267;BME280;24967;51.154;13.812;2023-01-27T10:38:42;100119.66;;;2.00;79.60
39267;BME280;24967;51.154;13.812;2023-01-27T10:41:15;100128.69;;;2.11;79.78
39267;BME280;24967;51.154;13.812;2023-01-27T10:43:47;100125.63;;;2.02;79.95
39267;BME280;24967;51.154;13.812;2023-01-27T10:46:21;100129.34;;;1.98;79.88
39267;BME280;24967;51.154;13.812;2023-01-27T10:48:51;100124.38;;;1.94;79.94
39267;BME280;24967;51.154;13.812;2023-01-27T10:51:23;100123.41;;;1.79;80.34
39267;BME280;24967;51.154;13.812;2023-01-27T10:53:51;100125.38;;;1.91;80.91
39267;BME280;24967;51.154;13.812;2023-01-27T10:56:24;100119.66;;;2.00;81.04
39267;BME280;24967;51.154;13.812;2023-01-27T10:58:55;100122.19;;;2.18;80.61
39267;BME280;24967;51.154;13.812;2023-01-27T11:01:26;100124.41;;;2.10;80.53
39267;BME280;24967;51.154;13.812;2023-01-27T11:03:55;100130.03;;;2.02;80.51
39267;BME280;24967;51.154;13.812;2023-01-27T11:06:26;100129.81;;;2.06;80.10
39267;BME280;24967;51.154;13.812;2023-01-27T11:08:55;100135.53;;;1.97;81.53
39267;BME280;24967;51.154;13.812;2023-01-27T11:11:25;100134.97;;;2.08;80.94
39267;BME280;24967;51.154;13.812;2023-01-27T11:14:14;100130.81;;;2.20;80.97
39267;BME280;24967;51.154;13.812;2023-01-27T11:16:42;100125.91;;;2.29;80.16
39267;BME280;24967;51.154;13.812;2023-01-27T11:19:13;100123.91;;;2.19;80.42
39267;BME280;24967;51.154;13.812;2023-01-27T11:21:43;100134.44;;;2.01;81.07
39267;BME280;24967;51.154;13.812;2023-01-27T11:24:13;100128.53;;;2.14;80.82
39267;BME280;24967;51.154;13.812;2023-01-27T11:26:42;100129.16;;;2.19;80.83
39267;BME280;24967;51.154;13.812;2023-01-27T11:29:16;100123.91;;;2.35;80.11
39267;BME280;24967;51.154;13.812;2023-01-27T11:31:47;100126.78;;;2.30;80.11
39267;BME280;24967;51.154;13.812;2023-01-27T11:34:19;100118.31;;;2.09;80.61
39267;BME280;24967;51.154;13.812;2023-01-27T11:36:50;100125.75;;;2.17;80.68
39267;BME280;24967;51.154;13.812;2023-01-27T11:39:19;100121.19;;;2.20;80.84
39267;BME280;24967;51.154;13.812;2023-01-27T11:41:47;100117.88;;;2.33;80.43
39267;BME280;24967;51.154;13.812;2023-01-27T11:44:16;100120.50;;;2.33;80.10
39267;BME280;24967;51.154;13.812;2023-01-27T11:46:44;100119.22;;;2.08;81.02
39267;BME280;24967;51.154;13.812;2023-01-27T11:49:11;100121.25;;;2.03;81.34
39267;BME280;24967;51.154;13.812;2023-01-27T11:51:41;100120.16;;;2.23;80.33
39267;BME280;24967;51.154;13.812;2023-01-27T11:54:16;100123.56;;;2.25;80.25
39267;BME280;24967;51.154;13.812;2023-01-27T11:56:44;100119.38;;;2.05;81.75
39267;BME280;24967;51.154;13.812;2023-01-27T11:59:21;100121.59;;;2.13;81.62
39267;BME280;24967;51.154;13.812;2023-01-27T12:01:49;100120.72;;;1.96;82.27
39267;BME280;24967;51.154;13.812;2023-01-27T12:04:20;100112.47;;;2.04;81.91
39267;BME280;24967;51.154;13.812;2023-01-27T12:06:48;100115.19;;;2.18;81.48
39267;BME280;24967;51.154;13.812;2023-01-27T12:09:32;100106.78;;;2.12;82.18
39267;BME280;24967;51.154;13.812;2023-01-27T12:12:09;100110.88;;;1.84;82.30
39267;BME280;24967;51.154;13.812;2023-01-27T12:14:36;100100.31;;;1.86;82.44
39267;BME280;24967;51.154;13.812;2023-01-27T12:17:02;100098.47;;;1.88;82.97
39267;BME280;24967;51.154;13.812;2023-01-27T12:19:30;100096.16;;;1.81;83.23
39267;BME280;24967;51.154;13.812;2023-01-27T12:22:01;100094.16;;;2.02;82.83
39267;BME280;24967;51.154;13.812;2023-01-27T12:24:28;100090.03;;;1.98;82.22
39267;BME280;24967;51.154;13.812;2023-01-27T12:26:58;100091.66;;;2.17;82.48
39267;BME280;24967;51.154;13.812;2023-01-27T12:29:25;100093.94;;;2.07;82.39
39267;BME280;24967;51.154;13.812;2023-01-27T12:31:52;100090.19;;;1.95;81.81
39267;BME280;24967;51.154;13.812;2023-01-27T12:34:24;100087.25;;;2.17;81.66
39267;BME280;24967;51.154;13.812;2023-01-27T12:36:51;100091.47;;;1.88;82.34
39267;BME280;24967;51.154;13.812;2023-01-27T12:39:32;100089.53;;;2.08;82.60
39267;BME280;24967;51.154;13.812;2023-01-27T12:42:04;100089.28;;;2.12;82.34
39267;BME280;24967;51.154;13.812;2023-01-27T12:44:39;100094.78;;;2.23;82.29
39267;BME280;24967;51.154;13.812;2023-01-27T12:47:14;100090.72;;;2.18;82.54
39267;BME280;24967;51.154;13.812;2023-01-27T12:49:45;100097.44;;;2.39;82.04
39267;BME280;24967;51.154;13.812;2023-01-27T12:52:15;100090.13;;;2.13;82.00
39267;BME280;24967;51.154;13.812;2023-01-27T12:54:43;100092.25;;;2.22;82.58
39267;BME280;24967;51.154;13.812;2023-01-27T12:57:11;100086.31;;;2.34;82.07
39267;BME280;24967;51.154;13.812;2023-01-27T12:59:41;100088.34;;;2.29;81.71
39267;BME280;24967;51.154;13.812;2023-01-27T13:02:14;100082.84;;;2.02;82.32
39267;BME280;24967;51.154;13.812;2023-01-27T13:04:41;100075.56;;;2.39;82.15
39267;BME280;24967;51.154;13.812;2023-01-27T13:07:11;100083.03;;;2.46;81.77
39267;BME280;24967;51.154;13.812;2023-01-27T13:09:40;100077.50;;;2.35;82.46
39267;BME280;24967;51.154;13.812;2023-01-27T13:12:17;100078.69;;;2.29;82.12